Time;durP1;ratioP1;P1;durP2;ratioP2;P2;SDS_P1;SDS_P2;PMS_P1;PMS_P2;Temp;Humidity;BMP_temperature;BMP_pressure;BME280_temperature;BME280_humidity;BME280_pressure;Samples;Min_cycle;Max_cycle;Signal;HPM_P1;HPM_P2
2022/08/20 00:00:42;;;;;;;6.03;4.30;;;;;;;19.91;65.53;99293.38;1755190;81;21015;-42
2022/08/20 00:03:20;;;;;;;10.72;5.72;;;;;;;19.93;65.66;99299.24;1755165;81;21224;-42
2022/08/20 00:05:52;;;;;;;6.58;4.92;;;;;;;19.93;65.60;99293.73;1755454;81;20991;-42
2022/08/20 00:08:20;;;;;;;8.25;5.37;;;;;;;19.89;65.80;99301.30;1749913;81;20966;-42
2022/08/20 00:10:48;;;;;;;9.60;5.45;;;;;;;19.84;65.98;99307.29;1753836;81;20986;-42
2022/08/20 00:13:23;;;;;;;8.50;5.55;;;;;;;19.78;66.12;99311.72;1749941;82;21019;-42
2022/08/20 00:15:50;;;;;;;7.95;4.85;;;;;;;19.75;66.21;99305.07;1749652;81;21230;-42
2022/08/20 00:18:17;;;;;;;5.78;4.55;;;;;;;19.74;66.17;99322.80;1749673;82;20990;-42
2022/08/20 00:20:47;;;;;;;5.45;4.30;;;;;;;19.77;66.11;99317.04;1749861;82;20935;-42
2022/08/20 00:23:14;;;;;;;7.53;5.30;;;;;;;19.78;66.19;99313.09;1749975;81;21068;-42
2022/08/20 00:25:42;;;;;;;7.47;5.10;;;;;;;19.75;66.13;99313.33;1750034;81;21022;-42
2022/08/20 00:28:09;;;;;;;8.28;5.42;;;;;;;19.73;66.14;99313.59;1750154;81;21828;-42
2022/08/20 00:30:36;;;;;;;7.78;5.60;;;;;;;19.69;66.05;99310.13;1750106;81;20971;-42
2022/08/20 00:33:10;;;;;;;6.87;5.58;;;;;;;19.65;66.01;99309.42;1750065;81;21007;-42
2022/08/20 00:35:42;;;;;;;6.92;4.87;;;;;;;19.58;66.05;99306.20;1749751;82;21607;-42
2022/08/20 00:38:09;;;;;;;5.65;4.60;;;;;;;19.53;66.16;99308.84;1750261;82;21378;-42
2022/08/20 00:40:41;;;;;;;6.35;4.78;;;;;;;19.53;66.19;99303.33;1750066;82;21092;-42
2022/08/20 00:43:45;;;;;;;7.97;5.30;;;;;;;19.55;66.30;99295.27;1746072;82;21048;-42
2022/08/20 00:46:23;;;;;;;6.17;4.70;;;;;;;19.54;66.33;99287.61;1742692;82;21555;-42
2022/08/20 00:48:51;;;;;;;5.80;5.22;;;;;;;19.47;66.39;99294.02;1743184;82;21571;-42
2022/08/20 00:51:37;;;;;;;7.78;5.00;;;;;;;19.44;66.51;99287.21;1743314;82;21045;-42
2022/08/20 00:54:23;;;;;;;9.35;4.70;;;;;;;19.42;66.58;99289.56;1743126;82;21601;-42
2022/08/20 00:57:02;;;;;;;7.25;4.92;;;;;;;19.40;66.52;99283.13;1737988;82;20955;-42
2022/08/20 00:59:29;;;;;;;5.03;4.42;;;;;;;19.43;66.50;99283.66;1742613;82;21496;-42
2022/08/20 01:01:56;;;;;;;6.30;4.15;;;;;;;19.43;66.42;99285.63;1742978;82;21779;-42
2022/08/20 01:04:30;;;;;;;6.92;4.72;;;;;;;19.41;66.52;99282.53;1743141;82;21050;-42
2022/08/20 01:06:57;;;;;;;6.10;4.92;;;;;;;19.40;66.60;99284.50;1743125;82;21203;-42
2022/08/20 01:09:24;;;;;;;8.15;4.35;;;;;;;19.38;66.82;99289.63;1742919;82;21563;-42
2022/08/20 01:11:52;;;;;;;5.87;4.53;;;;;;;19.34;67.29;99298.55;1738773;81;20997;-42
2022/08/20 01:16:47;;;;;;;6.40;4.72;;;;;;;19.30;67.67;99299.80;1735221;82;21010;-42
2022/08/20 01:19:15;;;;;;;5.97;5.17;;;;;;;19.26;67.86;99291.63;1735109;82;21281;-42
2022/08/20 01:21:42;;;;;;;6.58;5.08;;;;;;;19.23;68.01;99288.33;1714361;82;20950;-42
2022/08/20 01:24:33;;;;;;;6.33;4.85;;;;;;;19.22;68.02;99282.64;1735218;82;21021;-42
2022/08/20 01:27:01;;;;;;;5.42;4.30;;;;;;;19.21;68.07;99283.86;1735078;82;21583;-42
2022/08/20 01:29:37;;;;;;;4.90;4.00;;;;;;;19.22;68.05;99280.52;1735296;82;21053;-42
2022/08/20 01:32:05;;;;;;;8.18;5.00;;;;;;;19.26;67.92;99286.13;1731241;82;21262;-42
2022/08/20 01:34:32;;;;;;;6.58;4.67;;;;;;;19.30;67.88;99287.44;1734888;82;21025;-42
2022/08/20 01:36:59;;;;;;;6.53;5.12;;;;;;;19.27;67.58;99290.41;1734835;82;20903;-42
2022/08/20 01:39:30;;;;;;;8.43;5.50;;;;;;;19.25;67.18;99291.45;1734758;82;21594;-42
2022/08/20 01:42:29;;;;;;;8.93;5.40;;;;;;;19.23;66.86;99293.82;1735029;82;21029;-42
2022/08/20 01:44:57;;;;;;;7.30;5.15;;;;;;;19.18;66.79;99292.92;1734738;82;21129;-42
2022/08/20 01:47:27;;;;;;;8.33;5.75;;;;;;;19.06;66.92;99292.94;1734809;82;20953;-42
2022/08/20 01:49:58;;;;;;;7.67;4.72;;;;;;;19.02;66.89;99297.73;1735023;82;21600;-42
2022/08/20 01:52:51;;;;;;;8.65;5.00;;;;;;;18.99;66.79;99295.02;1733913;82;20991;-42
2022/08/20 01:55:19;;;;;;;5.78;5.22;;;;;;;18.95;66.79;99290.95;1724898;82;21089;-42
2022/08/20 01:57:47;;;;;;;7.70;5.75;;;;;;;18.90;66.99;99301.64;1734885;82;21180;-42
2022/08/20 02:00:17;;;;;;;7.10;5.50;;;;;;;18.86;67.08;99292.09;1714628;82;20938;-42
2022/08/20 02:02:45;;;;;;;10.13;6.70;;;;;;;18.86;67.11;99298.95;1735220;82;21057;-42
2022/08/20 02:05:12;;;;;;;7.12;5.47;;;;;;;18.84;67.16;99285.44;1735182;82;21050;-42
2022/08/20 02:07:39;;;;;;;7.05;4.90;;;;;;;18.82;67.15;99282.35;1735067;82;21022;-42
2022/08/20 02:10:07;;;;;;;8.75;6.55;;;;;;;18.83;67.22;99281.16;1735115;82;21131;-42
2022/08/20 02:12:34;;;;;;;8.58;5.60;;;;;;;18.83;67.21;99288.03;1740669;81;21088;-42
2022/08/20 02:15:04;;;;;;;10.23;6.08;;;;;;;18.79;67.33;99283.95;1743218;82;21049;-42
2022/08/20 02:17:31;;;;;;;7.28;5.03;;;;;;;18.80;67.36;99281.98;1743364;82;21012;-42
2022/08/20 02:20:02;;;;;;;6.05;5.37;;;;;;;18.77;67.44;99278.11;1743204;82;20965;-42
2022/08/20 02:22:53;;;;;;;6.53;4.70;;;;;;;18.72;67.54;99276.42;1743023;82;21222;-42
2022/08/20 02:25:22;;;;;;;7.58;5.75;;;;;;;18.75;67.56;99279.70;1743002;82;21018;-42
2022/08/20 02:27:50;;;;;;;6.17;5.50;;;;;;;18.80;67.48;99276.48;1742988;82;21085;-42
2022/08/20 02:30:20;;;;;;;5.45;4.95;;;;;;;18.82;67.52;99274.11;1743171;82;21025;-42
2022/08/20 02:32:47;;;;;;;6.25;5.17;;;;;;;18.83;67.65;99281.16;1743170;82;20995;-42
2022/08/20 02:35:14;;;;;;;7.78;5.92;;;;;;;18.84;67.65;99286.81;1743217;82;21204;-42
2022/08/20 02:37:42;;;;;;;7.15;5.28;;;;;;;18.83;67.83;99286.03;1743239;82;20981;-42
2022/08/20 02:40:14;;;;;;;7.90;4.95;;;;;;;18.86;67.86;99285.81;1743450;82;21040;-41
2022/08/20 02:42:42;;;;;;;8.05;5.10;;;;;;;18.89;68.03;99285.75;1743088;82;21009;-42
2022/08/20 02:45:11;;;;;;;8.68;5.37;;;;;;;18.94;68.23;99283.13;1743558;82;21523;-42
2022/08/20 02:47:42;;;;;;;6.72;5.17;;;;;;;18.94;67.97;99288.62;1743102;82;20953;-42
2022/08/20 02:50:13;;;;;;;6.42;5.67;;;;;;;18.90;67.81;99279.06;1743680;82;20982;-42
2022/08/20 02:52:41;;;;;;;6.58;5.55;;;;;;;18.86;67.87;99278.95;1743127;82;21012;-42
2022/08/20 02:55:09;;;;;;;5.80;5.20;;;;;;;18.84;67.92;99280.73;1743195;82;20997;-42
2022/08/20 02:57:37;;;;;;;6.35;5.12;;;;;;;18.83;67.84;99281.91;1743502;82;21041;-42
2022/08/20 03:00:10;;;;;;;6.75;5.25;;;;;;;18.88;67.70;99278.70;1743339;82;21139;-42
2022/08/20 03:02:37;;;;;;;7.30;5.67;;;;;;;18.90;67.63;99282.41;1743097;82;20985;-42
2022/08/20 03:05:06;;;;;;;7.42;5.80;;;;;;;18.89;67.82;99277.51;1743160;82;20998;-42
2022/08/20 03:07:45;;;;;;;8.03;5.60;;;;;;;18.93;67.86;99274.70;1743287;82;20930;-42
2022/08/20 03:10:13;;;;;;;6.90;5.80;;;;;;;18.93;67.93;99274.10;1743487;82;21542;-42
2022/08/20 03:12:41;;;;;;;7.80;5.25;;;;;;;18.91;68.05;99275.13;1746884;81;21950;-41
2022/08/20 03:15:09;;;;;;;8.23;5.72;;;;;;;18.91;68.13;99268.86;1749157;81;20990;-42
2022/08/20 03:17:36;;;;;;;7.35;5.78;;;;;;;18.95;68.02;99276.44;1749481;81;21016;-42
2022/08/20 03:20:08;;;;;;;10.63;6.17;;;;;;;18.98;67.96;99282.47;1749246;81;21005;-42
2022/08/20 03:22:35;;;;;;;8.13;6.03;;;;;;;18.97;68.12;99278.19;1749661;82;21017;-42
2022/08/20 03:25:06;;;;;;;8.20;6.30;;;;;;;18.98;68.21;99276.37;1749004;81;21749;-42
2022/08/20 03:27:34;;;;;;;7.20;6.37;;;;;;;18.96;68.30;99266.42;1749300;81;21040;-42
2022/08/20 03:30:01;;;;;;;7.53;5.65;;;;;;;18.99;68.24;99262.83;1749148;82;21535;-42
2022/08/20 03:32:28;;;;;;;6.40;5.35;;;;;;;19.04;68.25;99267.06;1749168;81;21484;-42
2022/08/20 03:34:55;;;;;;;9.25;5.83;;;;;;;19.08;68.28;99267.18;1749061;81;21072;-42
2022/08/20 03:37:22;;;;;;;8.13;6.67;;;;;;;19.08;68.31;99260.31;1748982;82;21149;-42
2022/08/20 03:39:50;;;;;;;8.25;6.65;;;;;;;19.10;68.29;99256.56;1748864;81;20941;-42
2022/08/20 03:42:18;;;;;;;9.75;6.67;;;;;;;19.13;68.32;99260.42;1749139;81;20978;-42
2022/08/20 03:44:45;;;;;;;8.45;6.20;;;;;;;19.15;68.37;99262.17;1749177;81;20953;-42
2022/08/20 03:47:12;;;;;;;8.98;6.35;;;;;;;19.17;68.52;99263.13;1749096;82;21487;-42
2022/08/20 03:49:39;;;;;;;11.73;6.35;;;;;;;19.18;68.78;99272.31;1749254;81;21494;-42
2022/08/20 03:52:06;;;;;;;9.25;6.83;;;;;;;19.19;69.04;99267.00;1748656;82;21515;-42
2022/08/20 03:54:33;;;;;;;7.22;6.05;;;;;;;19.22;69.26;99258.53;1749007;82;20991;-42
2022/08/20 03:57:01;;;;;;;7.85;5.70;;;;;;;19.24;69.49;99263.77;1748960;82;21021;-42
2022/08/20 03:59:31;;;;;;;5.50;5.00;;;;;;;19.29;69.78;99270.16;1749114;81;21602;-42
2022/08/20 04:01:59;;;;;;;7.60;6.22;;;;;;;19.37;69.87;99261.18;1749309;81;21127;-42
2022/08/20 04:04:26;;;;;;;6.53;5.55;;;;;;;19.44;69.84;99262.47;1748826;82;21522;-42
2022/08/20 04:06:54;;;;;;;11.88;5.85;;;;;;;19.45;69.93;99262.05;1748958;82;20986;-42
2022/08/20 04:09:21;;;;;;;6.42;5.83;;;;;;;19.50;69.94;99264.91;1749012;82;20932;-42
2022/08/20 04:11:50;;;;;;;7.12;5.53;;;;;;;19.53;69.98;99266.21;1748991;81;20970;-42
2022/08/20 04:14:17;;;;;;;6.92;5.62;;;;;;;19.58;69.93;99267.70;1748837;82;23153;-42
2022/08/20 04:16:45;;;;;;;6.87;5.35;;;;;;;19.68;69.73;99267.31;1748866;81;20977;-42
2022/08/20 04:19:12;;;;;;;6.50;5.85;;;;;;;19.78;69.52;99264.95;1749012;81;21750;-42
2022/08/20 04:21:40;;;;;;;6.97;5.47;;;;;;;19.79;69.43;99256.89;1749101;82;21020;-42
2022/08/20 04:24:07;;;;;;;9.43;5.67;;;;;;;19.80;69.40;99255.69;1749143;82;21001;-42
2022/08/20 04:26:36;;;;;;;7.67;5.03;;;;;;;19.81;69.58;99262.13;1749098;82;21297;-42
2022/08/20 04:29:03;;;;;;;6.50;4.70;;;;;;;19.87;69.57;99261.03;1749157;82;20961;-42
2022/08/20 04:31:34;;;;;;;5.67;4.78;;;;;;;19.96;69.32;99263.98;1749101;82;21024;-42
2022/08/20 04:34:01;;;;;;;5.97;5.15;;;;;;;20.05;69.14;99264.78;1749356;81;21515;-41
2022/08/20 04:36:30;;;;;;;6.97;4.70;;;;;;;20.10;69.15;99268.41;1749042;82;21028;-42
2022/08/20 04:38:57;;;;;;;7.87;4.95;;;;;;;20.14;69.30;99261.63;1749383;81;21747;-42
2022/08/20 04:41:24;;;;;;;4.95;4.33;;;;;;;20.18;69.36;99262.36;1749117;82;20965;-41
2022/08/20 04:43:53;;;;;;;4.25;3.83;;;;;;;20.23;69.30;99264.61;1749099;81;21084;-41
2022/08/20 04:46:22;;;;;;;5.83;4.37;;;;;;;20.32;69.33;99266.20;1749192;82;21020;-41
2022/08/20 04:48:49;;;;;;;4.80;3.83;;;;;;;20.45;69.34;99263.55;1749338;81;21033;-41
2022/08/20 04:51:16;;;;;;;4.20;3.75;;;;;;;20.52;69.46;99259.27;1748924;81;21234;-42
2022/08/20 04:53:44;;;;;;;6.72;4.20;;;;;;;20.61;69.47;99260.05;1748947;82;21472;-41
2022/08/20 04:56:11;;;;;;;8.53;3.98;;;;;;;20.69;69.34;99254.53;1748893;81;21018;-41
2022/08/20 04:58:39;;;;;;;4.00;3.27;;;;;;;20.76;69.31;99254.37;1748861;82;21012;-41
2022/08/20 05:01:09;;;;;;;4.87;3.65;;;;;;;20.92;68.93;99257.70;1749255;81;21587;-42
2022/08/20 05:03:37;;;;;;;5.03;3.52;;;;;;;20.78;68.73;99215.53;1749090;82;21221;-42
2022/08/20 05:06:07;;;;;;;;;;;;;;;21.08;68.71;99246.08;1751539;81;20926;-41
2022/08/20 05:08:35;;;;;;;6.08;3.50;;;;;;;21.15;68.64;99254.21;1749014;82;20130;-42
2022/08/20 05:11:01;;;;;;;3.70;2.90;;;;;;;21.13;68.53;99245.59;1749048;82;21084;-42
2022/08/20 05:13:29;;;;;;;3.35;2.83;;;;;;;21.23;68.27;99242.38;1739557;81;21535;-42
2022/08/20 05:16:00;;;;;;;3.10;2.67;;;;;;;21.34;67.78;99242.88;1734986;82;21147;-42
2022/08/20 05:18:25;;;;;;;3.27;2.98;;;;;;;21.43;67.63;99232.59;1735115;82;20962;-42
2022/08/20 05:20:52;;;;;;;5.15;3.10;;;;;;;21.51;67.73;99229.20;1735167;82;21079;-42
2022/08/20 05:23:19;;;;;;;4.55;3.37;;;;;;;21.60;67.30;99235.46;1735032;82;21003;-42
2022/08/20 05:25:51;;;;;;;5.92;3.15;;;;;;;21.69;67.17;99232.84;1735203;82;21029;-42
2022/08/20 05:28:22;;;;;;;3.80;3.17;;;;;;;21.73;66.91;99234.92;1735083;82;21151;-42
2022/08/20 05:30:49;;;;;;;3.72;2.62;;;;;;;21.81;66.50;99237.63;1735050;82;21112;-42
2022/08/20 05:33:19;;;;;;;3.45;2.85;;;;;;;21.90;66.16;99233.62;1734999;82;21013;-42
2022/08/20 05:35:48;;;;;;;4.22;2.90;;;;;;;22.01;65.74;99249.30;1735113;82;21523;-42
2022/08/20 05:38:17;;;;;;;5.15;3.33;;;;;;;22.09;65.67;99245.72;1735146;82;21080;-42
2022/08/20 05:40:44;;;;;;;3.87;3.40;;;;;;;22.18;65.17;99252.73;1735118;82;21234;-42
2022/08/20 05:43:12;;;;;;;4.33;3.70;;;;;;;22.23;64.82;99248.65;1735364;82;20903;-42
2022/08/20 05:45:41;;;;;;;4.60;3.70;;;;;;;22.27;64.45;99244.56;1734828;82;21037;-42
2022/08/20 05:48:12;;;;;;;4.55;3.20;;;;;;;22.37;64.31;99256.50;1735308;82;20998;-42
2022/08/20 05:50:41;;;;;;;4.05;3.25;;;;;;;22.47;63.72;99265.07;1734841;82;21100;-42
2022/08/20 05:53:08;;;;;;;5.90;3.30;;;;;;;22.53;63.46;99259.17;1735449;82;21133;-42
2022/08/20 05:55:38;;;;;;;4.55;3.70;;;;;;;22.60;63.45;99252.66;1734842;82;21565;-42
2022/08/20 05:58:10;;;;;;;4.00;3.42;;;;;;;22.66;62.91;99254.40;1735115;82;21788;-42
2022/08/20 06:00:38;;;;;;;3.92;3.62;;;;;;;22.68;62.32;99256.73;1714126;82;21018;-42
2022/08/20 06:05:50;;;;;;;5.40;3.60;;;;;;;22.67;61.79;99260.09;1735051;82;21129;-42
2022/08/20 06:08:17;;;;;;;4.72;3.98;;;;;;;22.66;61.95;99251.64;1734854;82;20926;-42
2022/08/20 06:10:45;;;;;;;5.28;3.58;;;;;;;22.71;62.03;99244.80;1734841;82;20949;-42
2022/08/20 06:13:12;;;;;;;4.20;3.20;;;;;;;22.81;61.83;99255.52;1740823;82;21488;-42
2022/08/20 06:15:39;;;;;;;5.60;3.60;;;;;;;22.92;60.87;99243.52;1749169;81;21068;-42
2022/08/20 06:18:09;;;;;;;4.92;3.25;;;;;;;23.00;60.37;99250.17;1749227;82;21146;-42
2022/08/20 06:20:37;;;;;;;6.37;3.67;;;;;;;23.06;60.29;99251.16;1749140;82;21569;-42
2022/08/20 06:23:05;;;;;;;5.00;3.42;;;;;;;23.10;59.98;99254.58;1749050;82;20941;-42
2022/08/20 06:27:58;;;;;;;4.67;3.65;;;;;;;23.17;59.95;99256.52;1779782;79;22739;-42
2022/08/20 06:30:25;;;;;;;4.10;3.70;;;;;;;23.09;60.17;99261.35;1739087;82;20919;-42
2022/08/20 06:32:52;;;;;;;3.95;3.55;;;;;;;23.13;60.10;99260.62;1739087;82;21169;-42
2022/08/20 06:35:19;;;;;;;5.37;3.67;;;;;;;23.16;60.39;99261.09;1739062;82;20899;-42
2022/08/20 06:37:47;;;;;;;5.30;3.47;;;;;;;23.19;60.38;99253.31;1739026;82;20970;-42
2022/08/20 06:40:21;;;;;;;4.85;3.55;;;;;;;23.22;60.23;99249.64;1739192;82;20934;-42
2022/08/20 06:42:50;;;;;;;4.28;2.92;;;;;;;23.28;59.88;99251.40;1739395;82;21009;-42
2022/08/20 06:45:23;;;;;;;3.35;2.62;;;;;;;23.36;59.47;99250.53;1739209;82;21221;-42
2022/08/20 06:47:50;;;;;;;3.45;2.60;;;;;;;23.38;59.69;99246.72;1739218;82;21490;-42
2022/08/20 06:50:19;;;;;;;4.15;2.58;;;;;;;23.46;59.13;99243.88;1739041;82;20966;-42
2022/08/20 06:52:47;;;;;;;3.52;2.70;;;;;;;23.52;58.67;99239.94;1738994;82;21576;-42
2022/08/20 06:55:14;;;;;;;4.12;2.50;;;;;;;23.54;58.44;99237.47;1747552;81;21009;-42
2022/08/20 06:57:42;;;;;;;3.00;2.70;;;;;;;23.54;58.28;99244.39;1757398;81;21460;-42
2022/08/20 07:00:17;;;;;;;5.67;2.70;;;;;;;23.49;58.04;99242.97;1757602;81;21488;-42
2022/08/20 07:02:45;;;;;;;3.42;2.70;;;;;;;23.47;58.04;99244.05;1757515;81;20905;-42
2022/08/20 07:05:12;;;;;;;2.55;2.35;;;;;;;23.44;57.93;99244.90;1724061;83;20940;-42
2022/08/20 07:07:41;;;;;;;2.60;2.40;;;;;;;23.42;58.19;99251.51;1723580;83;20989;-42
2022/08/20 07:10:11;;;;;;;4.97;2.37;;;;;;;23.39;58.33;99249.02;1672886;83;23231;-42
2022/08/20 07:12:38;;;;;;;4.12;2.10;;;;;;;23.39;58.28;99256.53;1723870;83;21544;-42
2022/08/20 07:15:07;;;;;;;3.17;2.20;;;;;;;23.40;58.10;99251.17;1723691;83;21026;-42
2022/08/20 07:17:35;;;;;;;2.35;2.00;;;;;;;23.37;57.99;99245.94;1724009;83;20945;-42
2022/08/20 07:20:08;;;;;;;5.50;1.90;;;;;;;23.38;57.73;99251.61;1723605;83;21475;-42
2022/08/20 07:22:36;;;;;;;2.83;1.85;;;;;;;23.42;57.96;99251.51;1723326;83;21129;-42
2022/08/20 07:25:05;;;;;;;2.80;1.92;;;;;;;23.49;57.73;99253.27;1723581;83;20917;-42
2022/08/20 07:27:32;;;;;;;2.13;1.73;;;;;;;23.56;57.34;99255.19;1713110;83;21018;-42
2022/08/20 07:32:44;;;;;;;3.67;1.90;;;;;;;23.74;56.71;99260.07;1708244;84;20981;-42
2022/08/20 07:35:14;;;;;;;1.92;1.57;;;;;;;23.87;56.41;99253.84;1744076;82;23142;-42
2022/08/20 07:37:45;;;;;;;2.15;1.72;;;;;;;24.01;55.95;99253.95;1743913;82;20981;-42
2022/08/20 07:40:19;;;;;;;3.60;1.75;;;;;;;24.11;55.54;99251.38;1743762;81;20970;-42
2022/08/20 07:42:46;;;;;;;2.40;1.70;;;;;;;24.23;55.64;99256.09;1743739;82;21050;-42
2022/08/20 07:45:14;;;;;;;2.62;1.70;;;;;;;24.31;55.44;99255.97;1708135;84;21554;-42
2022/08/20 07:47:42;;;;;;;2.85;1.80;;;;;;;24.38;55.32;99257.09;1707935;84;21239;-42
2022/08/20 07:50:11;;;;;;;2.10;1.90;;;;;;;24.44;54.91;99255.28;1707619;84;21571;-42
2022/08/20 07:52:39;;;;;;;2.50;1.52;;;;;;;24.51;54.42;99249.44;1743596;81;21005;-42
2022/08/20 07:55:11;;;;;;;2.80;1.82;;;;;;;24.58;54.18;99242.86;1743492;82;21006;-42
2022/08/20 07:57:38;;;;;;;3.02;2.10;;;;;;;24.62;53.93;99247.02;1743657;82;20994;-42
2022/08/20 08:00:07;;;;;;;2.47;1.80;;;;;;;24.66;53.97;99242.11;1743456;82;23131;-42
2022/08/20 08:02:35;;;;;;;2.55;1.70;;;;;;;24.69;53.89;99245.34;1707796;83;20993;-42
2022/08/20 08:05:04;;;;;;;3.12;2.00;;;;;;;24.73;54.02;99241.67;1707769;84;20942;-42
2022/08/20 08:07:33;;;;;;;3.98;1.90;;;;;;;24.72;53.98;99235.96;1707715;84;20994;-42
2022/08/20 08:10:01;;;;;;;2.90;2.15;;;;;;;24.71;54.43;99235.19;1707761;84;21046;-42
2022/08/20 08:12:33;;;;;;;2.20;2.00;;;;;;;24.71;54.35;99239.95;1743556;82;21203;-42
2022/08/20 08:15:02;;;;;;;2.52;1.80;;;;;;;24.72;54.00;99238.73;1707843;83;20981;-42
2022/08/20 08:17:30;;;;;;;2.55;1.82;;;;;;;24.67;53.82;99233.95;1743597;82;21548;-42
2022/08/20 08:19:58;;;;;;;1.70;1.60;;;;;;;24.67;53.45;99236.72;1743577;81;21030;-42
2022/08/20 08:22:25;;;;;;;3.72;1.85;;;;;;;24.63;53.54;99233.94;1743764;82;21077;-42
2022/08/20 08:24:52;;;;;;;2.08;1.60;;;;;;;24.61;53.76;99234.39;1743767;82;22071;-42
2022/08/20 08:27:20;;;;;;;3.22;1.82;;;;;;;24.62;53.80;99237.33;1711201;83;20960;-42
2022/08/20 08:29:48;;;;;;;3.37;1.80;;;;;;;24.64;54.13;99237.63;1715911;83;20937;-42
2022/08/20 08:32:15;;;;;;;2.77;1.75;;;;;;;24.65;54.50;99232.23;1751586;81;21034;-42
2022/08/20 08:34:46;;;;;;;3.67;1.85;;;;;;;24.69;54.47;99231.48;1751395;82;21027;-42
2022/08/20 08:37:12;;;;;;;1.90;1.70;;;;;;;24.77;53.70;99227.04;1751440;81;21245;-42
2022/08/20 08:39:39;;;;;;;1.92;1.50;;;;;;;24.85;53.13;99226.28;1715217;83;21521;-42
2022/08/20 08:42:26;;;;;;;2.92;1.70;;;;;;;24.93;53.19;99227.55;1751383;82;21402;-42
2022/08/20 08:44:53;;;;;;;1.50;1.40;;;;;;;25.04;52.51;99217.40;1715391;83;20894;-42
2022/08/20 08:47:34;;;;;;;1.87;1.60;;;;;;;25.11;52.22;99222.66;1715320;83;21040;-42
2022/08/20 08:50:04;;;;;;;3.75;1.85;;;;;;;25.17;52.15;99224.98;1751377;82;21908;-43
2022/08/20 08:52:34;;;;;;;2.17;1.60;;;;;;;25.24;52.19;99232.22;1751626;81;20978;-42
2022/08/20 08:55:07;;;;;;;1.65;1.40;;;;;;;25.30;52.14;99228.38;1715477;83;21012;-42
2022/08/20 08:57:34;;;;;;;1.60;1.50;;;;;;;25.35;52.12;99224.21;1732661;82;20934;-42
2022/08/20 09:00:09;;;;;;;2.70;1.67;;;;;;;25.39;51.81;99225.59;1751598;82;21041;-42
2022/08/20 09:02:41;;;;;;;3.50;1.72;;;;;;;25.41;51.89;99224.53;1733458;82;21096;-42
2022/08/20 09:05:13;;;;;;;2.47;1.75;;;;;;;25.44;52.35;99223.59;1751926;82;21001;-42
2022/08/20 09:07:41;;;;;;;2.05;1.60;;;;;;;25.43;52.02;99224.81;1715454;83;21091;-42
2022/08/20 09:10:08;;;;;;;1.92;1.32;;;;;;;25.44;51.50;99227.75;1715549;83;21053;-42
2022/08/20 09:12:35;;;;;;;3.55;1.85;;;;;;;25.47;51.40;99226.05;1715682;83;20980;-42
2022/08/20 09:15:04;;;;;;;2.15;1.52;;;;;;;25.47;51.47;99232.37;1715365;83;21636;-42
2022/08/20 09:17:31;;;;;;;1.65;1.42;;;;;;;25.48;51.25;99228.37;1715597;83;20964;-42
2022/08/20 09:19:59;;;;;;;1.98;1.22;;;;;;;25.52;50.77;99223.42;1715429;83;21001;-42
2022/08/20 09:22:25;;;;;;;1.60;1.47;;;;;;;25.58;50.62;99221.44;1715712;83;21538;-42
2022/08/20 09:24:52;;;;;;;1.80;1.27;;;;;;;25.60;50.70;99221.77;1710587;83;20997;-42
2022/08/20 09:27:20;;;;;;;5.25;1.47;;;;;;;25.64;50.22;99220.98;1712733;83;21215;-42
2022/08/20 09:29:47;;;;;;;1.37;1.17;;;;;;;25.67;50.13;99218.66;1707833;84;21005;-42
2022/08/20 09:32:18;;;;;;;1.92;1.32;;;;;;;25.64;50.27;99219.59;1707924;84;21037;-42
2022/08/20 09:34:50;;;;;;;2.20;1.30;;;;;;;25.62;50.42;99220.66;1743613;82;20966;-42
2022/08/20 09:37:17;;;;;;;2.27;1.27;;;;;;;25.60;50.26;99225.31;1707931;83;21530;-42
2022/08/20 09:39:44;;;;;;;1.57;1.47;;;;;;;25.60;49.91;99221.77;1707757;84;21251;-42
2022/08/20 09:42:18;;;;;;;1.50;1.35;;;;;;;25.61;49.65;99224.05;1743713;81;21535;-42
2022/08/20 09:44:44;;;;;;;1.30;1.20;;;;;;;25.60;49.19;99228.70;1743914;81;21081;-42
2022/08/20 09:47:11;;;;;;;1.95;1.20;;;;;;;25.57;49.36;99226.22;1708086;83;20977;-42
2022/08/20 09:49:39;;;;;;;2.08;1.50;;;;;;;25.47;49.73;99226.81;1707893;84;21033;-42
2022/08/20 09:52:09;;;;;;;1.75;1.30;;;;;;;25.44;50.41;99224.98;1743922;82;21965;-42
2022/08/20 09:54:37;;;;;;;3.15;1.40;;;;;;;25.44;50.56;99227.75;1744013;82;20938;-42
2022/08/20 09:57:08;;;;;;;1.85;1.27;;;;;;;25.45;50.38;99223.75;1707775;83;20977;-42
2022/08/20 09:59:35;;;;;;;1.65;1.30;;;;;;;25.47;50.66;99222.66;1743497;82;21092;-42
2022/08/20 10:02:02;;;;;;;1.57;1.30;;;;;;;25.49;50.30;99223.59;1743551;82;21006;-42
2022/08/20 10:04:29;;;;;;;1.30;1.20;;;;;;;25.52;49.93;99222.65;1743517;82;21131;-42
2022/08/20 10:06:56;;;;;;;1.77;1.45;;;;;;;25.56;49.56;99230.87;1707556;84;21106;-42
2022/08/20 10:09:23;;;;;;;1.40;1.20;;;;;;;25.59;49.61;99224.37;1707675;84;21046;-42
2022/08/20 10:11:51;;;;;;;2.27;1.50;;;;;;;25.62;49.94;99223.44;1707858;84;20965;-42
2022/08/20 10:14:19;;;;;;;3.35;1.60;;;;;;;25.63;50.29;99216.66;1707596;84;21069;-42
2022/08/20 10:16:46;;;;;;;2.72;1.70;;;;;;;25.65;49.97;99221.14;1708011;84;21535;-42
2022/08/20 10:19:13;;;;;;;2.52;1.40;;;;;;;25.69;49.47;99220.36;1707646;84;20961;-42
2022/08/20 10:21:40;;;;;;;2.52;1.45;;;;;;;25.73;49.65;99216.80;1707723;84;21375;-42
2022/08/20 10:24:07;;;;;;;2.30;1.40;;;;;;;25.74;49.53;99219.12;1707767;84;21006;-42
2022/08/20 10:26:36;;;;;;;1.55;1.32;;;;;;;25.79;49.25;99217.11;1707627;84;21154;-42
2022/08/20 10:29:03;;;;;;;1.22;0.95;;;;;;;25.88;48.25;99217.70;1733188;82;21145;-42
2022/08/20 10:31:30;;;;;;;4.10;1.40;;;;;;;25.94;48.47;99218.62;1743563;82;20934;-42
2022/08/20 10:33:57;;;;;;;1.42;1.30;;;;;;;26.01;48.50;99215.49;1743567;82;21038;-42
2022/08/20 10:36:24;;;;;;;2.65;1.30;;;;;;;26.07;48.99;99218.41;1743639;81;21034;-42
2022/08/20 10:38:51;;;;;;;1.67;1.02;;;;;;;26.13;48.24;99219.33;1743639;82;21010;-42
2022/08/20 10:41:18;;;;;;;1.35;1.20;;;;;;;26.17;47.87;99223.48;1743570;82;22002;-42
2022/08/20 10:43:47;;;;;;;2.75;1.25;;;;;;;26.21;47.75;99213.58;1707807;83;20957;-42
2022/08/20 10:46:14;;;;;;;1.92;1.30;;;;;;;26.25;47.27;99223.93;1707561;84;20977;-42
2022/08/20 10:48:41;;;;;;;2.05;1.50;;;;;;;26.28;47.29;99218.23;1743621;81;21790;-42
2022/08/20 10:51:08;;;;;;;2.67;1.30;;;;;;;26.31;47.37;99217.28;1707681;84;21013;-42
2022/08/20 10:53:35;;;;;;;1.60;1.27;;;;;;;26.31;47.25;99208.17;1743318;81;21204;-42
2022/08/20 10:56:03;;;;;;;1.60;1.35;;;;;;;26.35;47.20;99218.48;1743282;82;20934;-42
2022/08/20 10:58:30;;;;;;;1.72;1.30;;;;;;;26.36;47.33;99215.87;1707715;84;20998;-42
2022/08/20 11:00:57;;;;;;;2.08;1.82;;;;;;;26.33;47.85;99218.20;1707439;84;21575;-42
2022/08/20 11:03:25;;;;;;;3.58;1.55;;;;;;;26.30;47.86;99217.13;1707481;84;21049;-42
2022/08/20 11:05:52;;;;;;;2.12;1.20;;;;;;;26.27;47.22;99212.52;1707704;84;21141;-42
2022/08/20 11:08:20;;;;;;;1.35;1.25;;;;;;;26.22;47.71;99222.87;1707667;84;21559;-42
2022/08/20 11:10:47;;;;;;;1.37;1.27;;;;;;;26.19;47.77;99223.77;1707573;84;21027;-42
2022/08/20 11:13:14;;;;;;;2.58;1.50;;;;;;;26.13;48.03;99220.10;1743446;82;21011;-42
2022/08/20 11:15:41;;;;;;;1.30;1.20;;;;;;;26.06;48.43;99223.81;1743552;82;21041;-42
2022/08/20 11:18:09;;;;;;;2.33;1.77;;;;;;;25.98;48.46;99219.22;1707772;84;21146;-42
2022/08/20 11:20:37;;;;;;;1.52;1.42;;;;;;;25.92;48.62;99221.08;1707855;84;20961;-42
2022/08/20 11:23:05;;;;;;;1.65;1.50;;;;;;;25.86;49.00;99222.94;1707952;84;21016;-42
2022/08/20 11:25:32;;;;;;;2.50;1.52;;;;;;;25.77;48.97;99219.56;1707839;84;21080;-42
2022/08/20 11:27:59;;;;;;;2.15;1.90;;;;;;;25.72;48.72;99221.58;1707803;83;21021;-42
2022/08/20 11:30:30;;;;;;;1.85;1.60;;;;;;;25.69;48.76;99225.91;1708022;84;21472;-42
2022/08/20 11:32:58;;;;;;;2.35;1.55;;;;;;;25.64;49.19;99218.20;1708058;84;20957;-42
2022/08/20 11:35:27;;;;;;;2.33;1.40;;;;;;;25.60;49.34;99221.77;1743397;81;20966;-42
2022/08/20 11:37:55;;;;;;;1.72;1.50;;;;;;;25.51;49.39;99217.71;1743581;82;21380;-42
2022/08/20 11:40:24;;;;;;;1.85;1.45;;;;;;;25.45;49.44;99223.75;1743450;82;21032;-42
2022/08/20 11:42:51;;;;;;;1.87;1.70;;;;;;;25.39;49.95;99217.27;1743995;82;21162;-42
2022/08/20 11:45:19;;;;;;;1.87;1.60;;;;;;;25.37;50.37;99221.11;1743277;81;21579;-42
2022/08/20 11:47:46;;;;;;;3.08;1.80;;;;;;;25.34;50.09;99211.56;1743481;81;21037;-42
2022/08/20 11:50:17;;;;;;;3.00;1.70;;;;;;;25.33;50.40;99209.41;1743574;81;21017;-42
2022/08/20 11:52:44;;;;;;;3.15;1.80;;;;;;;25.30;50.47;99217.89;1707817;84;21009;-42